createdAt,value
2023-03-05T00:00:52.410Z,99361.28
2023-03-05T00:02:54.899Z,99336.56
2023-03-05T00:04:57.209Z,99289.78
2023-03-05T00:06:59.589Z,99292.00
2023-03-05T00:09:02.293Z,99336.41
2023-03-05T00:11:09.063Z,99339.47
2023-03-05T00:13:11.479Z,99306.63
2023-03-05T00:15:13.996Z,99337.31
2023-03-05T00:17:16.321Z,99331.56
2023-03-05T00:19:19.066Z,99367.03
2023-03-05T00:21:28.085Z,99308.44
2023-03-05T00:23:30.964Z,99338.22
2023-03-05T00:25:36.450Z,99337.88
2023-03-05T00:27:38.864Z,99332.19
2023-03-05T00:29:41.241Z,99296.03
2023-03-05T00:31:44.640Z,99284.56
2023-03-05T00:33:50.641Z,99328.91
2023-03-05T00:35:53.358Z,99305.91
2023-03-05T00:37:56.195Z,99250.59
2023-03-05T00:39:58.493Z,99338.53
2023-03-05T00:42:01.059Z,99273.63
2023-03-05T00:44:04.852Z,99311.03
2023-03-05T00:46:07.614Z,99324.78
2023-03-05T00:48:10.273Z,99329.72
2023-03-05T00:50:12.698Z,99292.38
2023-03-05T00:52:15.013Z,99298.88
2023-03-05T00:54:18.055Z,99351.88
2023-03-05T00:56:20.724Z,99343.38
2023-03-05T00:58:23.135Z,99293.91
2023-03-05T01:00:25.991Z,99292.38
2023-03-05T01:02:28.610Z,99277.50
2023-03-05T01:04:31.370Z,99268.78
2023-03-05T01:06:33.709Z,99301.81
2023-03-05T01:08:37.424Z,99251.81
2023-03-05T01:10:40.026Z,99293.28
2023-03-05T01:12:42.775Z,99311.06
2023-03-05T01:14:45.350Z,99250.53
2023-03-05T01:16:48.461Z,99303.97
2023-03-05T01:18:50.980Z,99254.16
2023-03-05T01:20:53.347Z,99290.31
2023-03-05T01:22:55.619Z,99288.03
2023-03-05T01:24:58.178Z,99269.59
2023-03-05T01:27:00.357Z,99276.75
2023-03-05T01:29:03.131Z,99278.50
2023-03-05T01:31:08.994Z,99307.53
2023-03-05T01:33:11.775Z,99220.09
2023-03-05T01:35:21.001Z,99282.59
2023-03-05T01:37:23.168Z,99260.88
2023-03-05T01:39:25.785Z,99284.25
2023-03-05T01:41:28.371Z,99287.69
2023-03-05T01:43:31.758Z,99304.00
2023-03-05T01:45:34.726Z,99266.88
2023-03-05T01:47:37.539Z,99263.16
2023-03-05T01:49:41.714Z,99270.47
2023-03-05T01:51:54.466Z,99333.97
2023-03-05T01:53:59.466Z,99307.56
2023-03-05T01:56:01.970Z,99277.13
2023-03-05T01:58:10.359Z,99251.28
2023-03-05T02:00:34.300Z,99327.00
2023-03-05T02:02:36.970Z,99272.03
2023-03-05T02:04:48.780Z,99264.22
2023-03-05T02:06:50.980Z,99298.69
2023-03-05T02:08:53.230Z,99298.19
2023-03-05T02:10:56.835Z,99282.56
2023-03-05T02:13:02.641Z,99320.50
2023-03-05T02:15:05.591Z,99275.13
2023-03-05T02:17:09.277Z,99305.91
2023-03-05T02:19:12.667Z,99241.41
2023-03-05T02:21:26.769Z,99274.66
2023-03-05T02:23:34.183Z,99328.31
2023-03-05T02:25:36.517Z,99259.06
2023-03-05T02:27:41.257Z,99272.16
2023-03-05T02:29:46.916Z,99302.84
2023-03-05T02:31:49.242Z,99214.53
2023-03-05T02:33:54.398Z,99272.22
2023-03-05T02:35:56.929Z,99258.91
2023-03-05T02:37:59.469Z,99269.28
2023-03-05T02:40:02.489Z,99225.59
2023-03-05T02:42:05.417Z,99242.28
2023-03-05T02:44:07.934Z,99216.25
2023-03-05T02:46:11.302Z,99241.78
2023-03-05T02:48:14.906Z,99209.59
2023-03-05T02:50:17.366Z,99252.06
2023-03-05T02:52:21.397Z,99227.47
2023-03-05T02:54:23.697Z,99224.00
2023-03-05T02:56:25.969Z,99247.28
2023-03-05T02:58:29.663Z,99301.25
2023-03-05T03:00:31.875Z,99276.66
2023-03-05T03:02:34.418Z,99236.56
2023-03-05T03:04:36.713Z,99253.81
2023-03-05T03:06:38.984Z,99257.34
2023-03-05T03:08:41.341Z,99184.03
2023-03-05T03:10:43.939Z,99191.44
2023-03-05T03:12:46.416Z,99228.47
2023-03-05T03:14:49.010Z,99241.56
2023-03-05T03:16:51.521Z,99231.75
2023-03-05T03:18:53.949Z,99224.34
2023-03-05T03:20:56.359Z,99195.38
2023-03-05T03:22:58.682Z,99204.28
2023-03-05T03:25:02.155Z,99170.72
2023-03-05T03:27:05.332Z,99181.56
2023-03-05T03:29:08.030Z,99239.09
2023-03-05T03:31:10.504Z,99184.03
2023-03-05T03:33:12.922Z,99228.56
2023-03-05T03:35:15.372Z,99184.47
2023-03-05T03:37:18.080Z,99144.69
2023-03-05T03:39:21.695Z,99223.69
2023-03-05T03:41:24.188Z,99200.78
2023-03-05T03:43:26.551Z,99215.44
2023-03-05T03:45:28.965Z,99186.19
2023-03-05T03:47:31.490Z,99151.88
2023-03-05T03:49:33.932Z,99189.63
2023-03-05T03:51:36.159Z,99204.00
2023-03-05T03:53:38.674Z,99195.81
2023-03-05T03:55:48.106Z,99171.25
2023-03-05T03:57:50.374Z,99197.56
2023-03-05T03:59:52.968Z,99179.63
2023-03-05T04:01:55.313Z,99163.16
2023-03-05T04:03:57.915Z,99181.25
2023-03-05T04:06:00.382Z,99237.06
2023-03-05T04:08:04.319Z,99229.75
2023-03-05T04:10:07.113Z,99206.41
2023-03-05T04:12:09.917Z,99203.75
2023-03-05T04:14:12.523Z,99189.63
2023-03-05T04:16:16.316Z,99180.75
2023-03-05T04:18:19.051Z,99138.72
2023-03-05T04:20:21.745Z,99195.34
2023-03-05T04:22:23.920Z,99187.34
2023-03-05T04:24:26.473Z,99207.88
2023-03-05T04:26:28.658Z,99188.75
2023-03-05T04:28:31.501Z,99146.72
2023-03-05T04:30:33.702Z,99202.50
2023-03-05T04:32:36.228Z,99180.38
2023-03-05T04:34:38.733Z,99178.88
2023-03-05T04:36:41.203Z,99185.69
2023-03-05T04:38:43.666Z,99146.44
2023-03-05T04:40:46.615Z,99149.63
2023-03-05T04:42:49.093Z,99198.84
2023-03-05T04:44:51.750Z,99199.38
2023-03-05T04:46:54.277Z,99171.00
2023-03-05T04:48:58.054Z,99180.75
2023-03-05T04:51:01.012Z,99172.28
2023-03-05T04:53:04.365Z,99168.25
2023-03-05T04:55:07.375Z,99191.59
2023-03-05T04:57:09.664Z,99179.91
2023-03-05T04:59:12.128Z,99190.28
2023-03-05T05:01:14.358Z,99123.84
2023-03-05T05:03:17.320Z,99179.09
2023-03-05T05:05:23.061Z,99192.94
2023-03-05T05:07:25.822Z,99207.91
2023-03-05T05:09:28.353Z,99181.78
2023-03-05T05:11:30.805Z,99176.31
2023-03-05T05:13:34.516Z,99189.25
2023-03-05T05:15:36.840Z,99120.28
2023-03-05T05:17:40.293Z,99167.03
2023-03-05T05:19:42.680Z,99161.06
2023-03-05T05:21:45.108Z,99093.44
2023-03-05T05:23:47.491Z,99187.88
2023-03-05T05:26:03.402Z,99229.13
2023-03-05T05:28:05.879Z,99203.91
2023-03-05T05:30:09.124Z,99132.31
2023-03-05T05:32:19.185Z,99154.09
2023-03-05T05:34:21.546Z,99205.53
2023-03-05T05:36:24.439Z,99112.91
2023-03-05T05:38:26.844Z,99173.84
2023-03-05T05:40:29.327Z,99195.41
2023-03-05T05:42:31.998Z,99170.97
2023-03-05T05:44:35.367Z,99211.06
2023-03-05T05:46:37.705Z,99185.56
2023-03-05T05:48:39.891Z,99211.84
2023-03-05T05:50:42.454Z,99178.78
2023-03-05T05:52:44.705Z,99111.28
2023-03-05T05:54:46.962Z,99141.44
2023-03-05T05:56:49.556Z,99126.03
2023-03-05T05:58:52.046Z,99141.22
2023-03-05T06:00:54.861Z,99154.97
2023-03-05T06:02:57.700Z,99161.44
2023-03-05T06:05:00.265Z,99149.16
2023-03-05T06:07:03.637Z,99166.09
2023-03-05T06:09:06.382Z,99138.97
2023-03-05T06:11:09.627Z,99128.03
2023-03-05T06:13:12.064Z,99203.59
2023-03-05T06:15:15.018Z,99094.66
2023-03-05T06:17:28.531Z,99165.22
2023-03-05T06:19:31.268Z,99127.31
2023-03-05T06:21:34.035Z,99104.81
2023-03-05T06:23:36.753Z,99114.81
2023-03-05T06:25:38.996Z,99191.00
2023-03-05T06:27:41.190Z,99178.19
2023-03-05T06:29:43.627Z,99104.81
2023-03-05T06:31:46.119Z,99119.19
2023-03-05T06:33:49.708Z,99144.75
2023-03-05T06:35:52.473Z,99131.38
2023-03-05T06:37:54.868Z,99134.81
2023-03-05T06:39:57.271Z,99141.97
2023-03-05T06:41:59.893Z,99106.25
2023-03-05T06:44:03.736Z,99091.97
2023-03-05T06:46:09.514Z,99165.56
2023-03-05T06:48:13.161Z,99150.47
2023-03-05T06:50:15.924Z,99155.22
2023-03-05T06:52:18.358Z,99126.50
2023-03-05T06:54:20.768Z,99073.75
2023-03-05T06:56:23.645Z,99122.03
2023-03-05T06:58:26.186Z,99074.19
2023-03-05T07:00:31.122Z,99143.13
2023-03-05T07:02:34.178Z,99130.78
2023-03-05T07:04:36.558Z,99098.25
2023-03-05T07:06:40.841Z,99114.22
2023-03-05T07:08:47.014Z,99066.25
2023-03-05T07:10:49.752Z,99119.31
2023-03-05T07:12:52.014Z,99175.94
2023-03-05T07:14:54.772Z,99128.88
2023-03-05T07:16:57.187Z,99113.47
2023-03-05T07:19:03.449Z,99092.91
2023-03-05T07:21:07.849Z,99117.56
2023-03-05T07:23:10.137Z,99086.38
2023-03-05T07:25:12.834Z,99104.97
2023-03-05T07:27:15.218Z,99095.94
2023-03-05T07:29:17.707Z,99085.91
2023-03-05T07:31:23.126Z,99083.81
2023-03-05T07:33:26.828Z,99050.28
2023-03-05T07:35:29.315Z,99096.13
2023-03-05T07:37:31.999Z,99095.53
2023-03-05T07:39:34.773Z,99106.00
2023-03-05T07:41:37.045Z,99137.06
2023-03-05T07:43:40.575Z,99117.19
2023-03-05T07:45:44.894Z,99129.66
2023-03-05T07:47:47.410Z,99092.34
2023-03-05T07:49:50.768Z,99099.59
2023-03-05T07:51:53.204Z,99097.63
2023-03-05T07:53:57.794Z,99095.72
2023-03-05T07:56:00.511Z,99074.28
2023-03-05T07:58:02.919Z,99072.31
2023-03-05T08:00:07.449Z,99050.88
2023-03-05T08:02:14.901Z,99037.81
2023-03-05T08:04:17.493Z,99088.75
2023-03-05T08:06:20.446Z,99079.97
2023-03-05T08:08:22.969Z,99083.81
2023-03-05T08:10:25.755Z,99056.66
2023-03-05T08:12:28.199Z,99066.81
2023-03-05T08:14:30.639Z,99098.09
2023-03-05T08:16:32.925Z,99100.47
2023-03-05T08:18:35.942Z,99066.88
2023-03-05T08:20:38.223Z,99072.31
2023-03-05T08:22:40.621Z,99012.94
2023-03-05T08:24:43.433Z,99077.00
2023-03-05T08:26:45.994Z,99070.97
2023-03-05T08:28:48.640Z,99081.66
2023-03-05T08:30:51.002Z,99071.38
2023-03-05T08:32:54.713Z,99067.00
2023-03-05T08:35:03.180Z,99020.53
2023-03-05T08:37:06.662Z,99059.53
2023-03-05T08:39:10.307Z,99067.00
2023-03-05T08:41:13.636Z,99050.78
2023-03-05T08:43:18.041Z,99019.31
2023-03-05T08:45:20.404Z,99085.09
2023-03-05T08:47:25.672Z,99025.72
2023-03-05T08:49:28.406Z,99020.69
2023-03-05T08:51:30.820Z,99012.16
2023-03-05T08:53:34.259Z,99057.22
2023-03-05T08:55:38.035Z,99074.19
2023-03-05T08:57:40.604Z,99090.25
2023-03-05T08:59:42.957Z,99054.72
2023-03-05T09:01:45.645Z,99056.72
2023-03-05T09:03:48.247Z,99062.31
2023-03-05T09:05:53.316Z,99004.03
2023-03-05T09:07:55.933Z,99049.81
2023-03-05T09:09:58.720Z,99015.97
2023-03-05T09:12:02.507Z,99080.81
2023-03-05T09:14:07.077Z,99062.78
2023-03-05T09:16:14.278Z,99098.72
2023-03-05T09:18:17.028Z,99088.38
2023-03-05T09:20:19.495Z,99050.63
2023-03-05T09:22:22.118Z,99108.56
2023-03-05T09:24:24.821Z,99056.13
2023-03-05T09:26:27.641Z,99022.84
2023-03-05T09:28:30.417Z,99003.69
2023-03-05T09:30:35.605Z,99045.88
2023-03-05T09:32:38.625Z,99076.06
2023-03-05T09:34:41.211Z,99049.00
2023-03-05T09:36:43.809Z,98997.31
2023-03-05T09:38:46.568Z,99047.53
2023-03-05T09:41:16.301Z,99099.06
2023-03-05T09:43:38.912Z,99097.59
2023-03-05T09:46:04.206Z,99033.66
2023-03-05T09:48:47.340Z,99056.91
2023-03-05T09:51:15.014Z,99007.66
2023-03-05T09:53:30.933Z,98995.84
2023-03-05T09:55:44.440Z,99063.28
2023-03-05T09:57:52.365Z,99095.97
2023-03-05T10:00:00.039Z,99053.19
2023-03-05T10:02:25.054Z,99105.81
2023-03-05T10:04:49.118Z,99026.75
2023-03-05T10:09:53.893Z,99099.34
2023-03-05T10:12:13.421Z,99060.25
2023-03-05T10:14:31.292Z,99012.28
2023-03-05T10:16:48.418Z,99095.91
2023-03-05T10:19:03.499Z,99061.16
2023-03-05T10:21:25.347Z,99033.56
2023-03-05T10:23:49.446Z,99080.69
2023-03-05T10:26:13.393Z,99082.13
2023-03-05T10:28:29.835Z,99037.75
2023-03-05T10:30:55.093Z,99088.13
2023-03-05T10:33:33.570Z,99066.78
2023-03-05T10:36:17.205Z,99071.22
2023-03-05T10:38:45.174Z,99081.22
2023-03-05T10:40:53.143Z,99008.34
2023-03-05T10:43:07.910Z,98991.78
2023-03-05T10:45:29.946Z,98997.53
2023-03-05T10:47:54.808Z,99061.84
2023-03-05T10:49:59.540Z,99002.94
2023-03-05T10:52:05.746Z,98991.38
2023-03-05T10:54:30.148Z,99071.19
2023-03-05T10:56:33.004Z,98972.78
2023-03-05T10:58:35.513Z,99055.25
2023-03-05T11:00:38.410Z,99015.44
2023-03-05T11:03:02.359Z,99025.97
2023-03-05T11:05:05.586Z,99014.88
2023-03-05T11:07:35.402Z,99030.91
2023-03-05T11:09:37.770Z,99056.09
2023-03-05T11:11:40.065Z,98990.72
2023-03-05T11:13:54.133Z,99045.66
2023-03-05T11:16:02.611Z,98977.31
2023-03-05T11:18:19.917Z,99030.97
2023-03-05T11:20:28.458Z,99041.81
2023-03-05T11:22:35.676Z,98990.63
2023-03-05T11:24:38.363Z,99035.50
2023-03-05T11:26:49.782Z,98933.56
2023-03-05T11:28:52.224Z,99032.59
2023-03-05T11:31:16.220Z,99023.50
2023-03-05T11:33:23.068Z,98999.81
2023-03-05T11:35:35.272Z,98949.63
2023-03-05T11:37:37.945Z,98994.56
2023-03-05T11:39:41.924Z,98991.84
2023-03-05T11:42:01.405Z,98937.91
2023-03-05T11:44:19.932Z,98961.00
2023-03-05T11:46:24.143Z,98971.97
2023-03-05T11:48:32.923Z,99000.56
2023-03-05T11:50:36.231Z,98966.03
2023-03-05T11:52:47.615Z,99008.25
2023-03-05T11:55:16.393Z,98997.06
2023-03-05T11:57:21.742Z,98959.59
2023-03-05T11:59:32.091Z,98936.59
2023-03-05T12:01:45.478Z,98916.84
2023-03-05T12:03:50.041Z,98968.22
2023-03-05T12:06:06.542Z,98952.25
2023-03-05T12:08:16.203Z,98954.91
2023-03-05T12:10:25.094Z,98921.38
2023-03-05T12:12:57.374Z,98981.63
2023-03-05T12:15:25.828Z,98992.06
2023-03-05T12:17:40.835Z,98908.78
2023-03-05T12:19:55.492Z,98925.16
2023-03-05T12:21:58.580Z,98912.38
2023-03-05T12:24:03.565Z,98977.53
2023-03-05T12:26:06.233Z,98909.09
2023-03-05T12:28:15.540Z,98937.84
2023-03-05T12:30:42.813Z,98969.84
2023-03-05T12:32:46.470Z,98969.06
2023-03-05T12:34:56.499Z,98902.31
2023-03-05T12:36:59.056Z,98963.72
2023-03-05T12:39:02.079Z,98921.16
2023-03-05T12:41:32.986Z,98942.44
2023-03-05T12:43:36.734Z,98924.00
2023-03-05T12:45:41.718Z,98879.13
2023-03-05T12:47:48.377Z,98947.94
2023-03-05T12:49:51.296Z,98887.72
2023-03-05T12:51:56.302Z,98946.63
2023-03-05T12:54:23.758Z,98867.03
2023-03-05T12:56:31.427Z,98906.84
2023-03-05T12:58:57.927Z,98886.28
2023-03-05T13:01:27.128Z,98935.38
2023-03-05T13:03:45.938Z,98861.81
2023-03-05T13:05:55.151Z,98917.16
2023-03-05T13:08:36.672Z,98949.59
2023-03-05T13:10:40.521Z,98884.09
2023-03-05T13:12:54.329Z,98900.28
2023-03-05T13:15:05.519Z,98937.44
2023-03-05T13:17:26.266Z,98939.88
2023-03-05T13:19:30.328Z,98890.66
2023-03-05T13:21:36.127Z,98910.41
2023-03-05T13:23:39.008Z,98900.69
2023-03-05T13:25:41.772Z,98882.78
2023-03-05T13:27:44.487Z,98925.56
2023-03-05T13:29:54.086Z,98823.78
2023-03-05T13:32:02.104Z,98862.66
2023-03-05T13:34:29.857Z,98890.78
2023-03-05T13:36:38.784Z,98884.75
2023-03-05T13:38:47.253Z,98901.22
2023-03-05T13:41:20.484Z,98903.38
2023-03-05T13:43:22.996Z,98858.78
2023-03-05T13:45:33.006Z,98844.66
2023-03-05T13:47:37.702Z,98887.09
2023-03-05T13:49:40.112Z,98817.06
2023-03-05T13:51:48.067Z,98845.06
2023-03-05T13:53:51.647Z,98887.72
2023-03-05T13:56:02.928Z,98911.88
2023-03-05T13:58:05.342Z,98821.34
2023-03-05T14:00:25.473Z,98879.41
2023-03-05T14:02:31.816Z,98841.97
2023-03-05T14:04:40.814Z,98866.13
2023-03-05T14:07:36.004Z,98925.63
2023-03-05T14:09:41.240Z,98917.91
2023-03-05T14:12:04.121Z,98852.63
2023-03-05T14:14:15.559Z,98860.59
2023-03-05T14:16:28.556Z,98819.69
2023-03-05T14:18:30.965Z,98830.50
2023-03-05T14:20:33.536Z,98855.16
2023-03-05T14:22:38.776Z,98838.81
2023-03-05T14:24:53.261Z,98793.38
2023-03-05T14:27:05.908Z,98862.91
2023-03-05T14:29:11.195Z,98903.84
2023-03-05T14:31:17.809Z,98876.13
2023-03-05T14:33:31.236Z,98848.81
2023-03-05T14:35:34.295Z,98794.72
2023-03-05T14:37:45.677Z,98851.88
2023-03-05T14:39:57.180Z,98856.97
2023-03-05T14:42:19.696Z,98894.25
2023-03-05T14:44:25.904Z,98795.66
2023-03-05T14:46:29.031Z,98855.06
2023-03-05T14:48:31.868Z,98855.56
2023-03-05T14:50:41.954Z,98847.28
2023-03-05T14:52:46.312Z,98830.91
2023-03-05T14:54:49.688Z,98848.19
2023-03-05T14:56:52.964Z,98821.41
2023-03-05T14:58:57.966Z,98888.50
2023-03-05T15:01:00.711Z,98833.56
2023-03-05T15:03:03.761Z,98828.22
2023-03-05T15:07:31.603Z,98817.19
2023-03-05T15:09:34.243Z,98886.13
2023-03-05T15:11:37.279Z,98854.59
2023-03-05T15:13:40.380Z,98888.38
2023-03-05T15:15:44.263Z,98791.50
2023-03-05T15:17:50.051Z,98841.31
2023-03-05T15:19:54.750Z,98839.69
2023-03-05T15:21:57.315Z,98864.03
2023-03-05T15:23:59.823Z,98807.78
2023-03-05T15:26:07.114Z,98815.88
2023-03-05T15:28:09.854Z,98838.06
2023-03-05T15:30:25.053Z,98841.13
2023-03-05T15:32:29.674Z,98759.72
2023-03-05T15:34:34.328Z,98883.19
2023-03-05T15:36:36.867Z,98847.97
2023-03-05T15:38:42.055Z,98824.97
2023-03-05T15:40:45.302Z,98772.41
2023-03-05T15:42:48.431Z,98824.56
2023-03-05T15:44:51.325Z,98830.69
2023-03-05T15:46:54.555Z,98854.22
2023-03-05T15:48:57.343Z,98840.94
2023-03-05T15:50:59.996Z,98812.41
2023-03-05T15:53:02.687Z,98805.13
2023-03-05T15:55:06.297Z,98824.69
2023-03-05T15:57:11.444Z,98861.97
2023-03-05T15:59:14.719Z,98785.91
2023-03-05T16:01:20.823Z,98790.38
2023-03-05T16:03:23.997Z,98873.41
2023-03-05T16:05:26.651Z,98783.41
2023-03-05T16:07:32.805Z,98855.09
2023-03-05T16:09:43.685Z,98781.44
2023-03-05T16:11:48.499Z,98873.75
2023-03-05T16:13:51.060Z,98836.72
2023-03-05T16:15:54.901Z,98814.19
2023-03-05T16:18:01.179Z,98828.88
2023-03-05T16:20:05.483Z,98894.22
2023-03-05T16:22:09.068Z,98896.53
2023-03-05T16:24:11.632Z,98820.66
2023-03-05T16:26:14.132Z,98842.34
2023-03-05T16:28:17.080Z,98888.28
2023-03-05T16:30:20.160Z,98852.19
2023-03-05T16:32:23.148Z,98819.69
2023-03-05T16:34:25.829Z,98825.16
2023-03-05T16:36:31.965Z,98840.53
2023-03-05T16:38:34.696Z,98862.75
2023-03-05T16:41:05.955Z,98841.56
2023-03-05T16:43:01.877Z,98840.03
2023-03-05T16:45:06.386Z,98860.47
2023-03-05T16:47:12.220Z,98877.06
2023-03-05T16:49:14.984Z,98891.66
2023-03-05T16:51:19.872Z,98859.31
2023-03-05T16:53:22.796Z,98851.03
2023-03-05T16:55:25.605Z,98862.41
2023-03-05T16:57:29.412Z,98829.63
2023-03-05T16:59:32.057Z,98852.41
2023-03-05T17:01:34.896Z,98854.66
2023-03-05T17:03:39.497Z,98872.59
2023-03-05T17:05:42.491Z,98810.53
2023-03-05T17:07:46.013Z,98884.25
2023-03-05T17:09:50.988Z,98868.03
2023-03-05T17:11:54.650Z,98858.03
2023-03-05T17:13:57.067Z,98852.47
2023-03-05T17:16:00.261Z,98855.22
2023-03-05T17:18:03.332Z,98852.56
2023-03-05T17:20:07.224Z,98854.94
2023-03-05T17:22:12.094Z,98843.38
2023-03-05T17:24:14.682Z,98840.19
2023-03-05T17:26:20.006Z,98872.97
2023-03-05T17:28:23.037Z,98877.81
2023-03-05T17:30:26.282Z,98904.91
2023-03-05T17:32:29.073Z,98865.47
2023-03-05T17:34:36.682Z,98834.56
2023-03-05T17:36:39.760Z,98804.09
2023-03-05T17:38:42.790Z,98796.59
2023-03-05T17:40:45.431Z,98888.53
2023-03-05T17:42:48.231Z,98864.03
2023-03-05T17:44:50.893Z,98881.16
2023-03-05T17:46:53.574Z,98889.25
2023-03-05T17:48:56.641Z,98793.69
2023-03-05T17:50:59.262Z,98878.59
2023-03-05T17:53:02.067Z,98823.44
2023-03-05T17:55:11.033Z,98869.31
2023-03-05T17:57:13.470Z,98780.06
2023-03-05T17:59:16.665Z,98827.56
2023-03-05T18:01:24.333Z,98899.00
2023-03-05T18:03:27.366Z,98858.19
2023-03-05T18:05:30.477Z,98849.13
2023-03-05T18:07:33.885Z,98815.81
2023-03-05T18:09:36.895Z,98808.81
2023-03-05T18:11:39.579Z,98858.13
2023-03-05T18:13:43.089Z,98798.88
2023-03-05T18:15:48.044Z,98815.00
2023-03-05T18:17:52.244Z,98831.28
2023-03-05T18:19:55.183Z,98870.63
2023-03-05T18:21:58.657Z,98788.88
2023-03-05T18:24:01.174Z,98769.97
2023-03-05T18:26:03.893Z,98873.69
2023-03-05T18:28:09.910Z,98789.63
2023-03-05T18:30:12.916Z,98789.63
2023-03-05T18:32:15.505Z,98835.28
2023-03-05T18:34:19.705Z,98820.72
2023-03-05T18:36:22.304Z,98800.16
2023-03-05T18:38:28.630Z,98816.72
2023-03-05T18:40:35.832Z,98792.31
2023-03-05T18:42:39.282Z,98872.44
2023-03-05T18:44:42.895Z,98764.13
2023-03-05T18:46:45.621Z,98841.75
2023-03-05T18:48:48.495Z,98778.13
2023-03-05T18:50:54.922Z,98828.16
2023-03-05T18:52:57.677Z,98863.41
2023-03-05T18:55:00.509Z,98806.72
2023-03-05T18:57:03.160Z,98789.16
2023-03-05T18:59:06.327Z,98791.22
2023-03-05T19:01:09.652Z,98818.16
2023-03-05T19:03:12.658Z,98806.88
2023-03-05T19:05:16.589Z,98849.47
2023-03-05T19:07:19.228Z,98817.34
2023-03-05T19:09:37.904Z,98818.06
2023-03-05T19:11:40.222Z,98836.91
2023-03-05T19:13:45.916Z,98814.78
2023-03-05T19:15:48.507Z,98797.50
2023-03-05T19:17:51.350Z,98795.13
2023-03-05T19:19:55.793Z,98863.97
2023-03-05T19:22:00.145Z,98844.91
2023-03-05T19:24:03.616Z,98799.22
2023-03-05T19:26:06.485Z,98824.63
2023-03-05T19:28:09.200Z,98777.38
2023-03-05T19:30:13.188Z,98815.53
2023-03-05T19:32:18.020Z,98860.47
2023-03-05T19:34:22.264Z,98833.09
2023-03-05T19:36:24.799Z,98800.50
2023-03-05T19:38:27.514Z,98814.88
2023-03-05T19:40:30.667Z,98807.34
2023-03-05T19:42:33.288Z,98833.56
2023-03-05T19:44:36.536Z,98831.00
2023-03-05T19:46:42.604Z,98808.72
2023-03-05T19:48:46.377Z,98869.53
2023-03-05T19:50:49.002Z,98811.88
2023-03-05T19:52:51.458Z,98803.88
2023-03-05T19:54:53.849Z,98809.25
2023-03-05T19:56:56.415Z,98849.66
2023-03-05T19:58:59.149Z,98779.13
2023-03-05T20:01:09.411Z,98769.13
2023-03-05T20:03:12.521Z,98811.50
2023-03-05T20:05:15.264Z,98739.28
2023-03-05T20:07:18.256Z,98763.03
2023-03-05T20:09:20.912Z,98760.09
2023-03-05T20:11:24.590Z,98839.19
2023-03-05T20:13:28.170Z,98750.97
2023-03-05T20:15:30.859Z,98800.69
2023-03-05T20:17:33.906Z,98803.22
2023-03-05T20:19:36.916Z,98761.00
2023-03-05T20:21:41.511Z,98791.28
2023-03-05T20:23:44.427Z,98806.94
2023-03-05T20:25:49.669Z,98761.63
2023-03-05T20:27:52.970Z,98803.41
2023-03-05T20:29:55.958Z,98789.56
2023-03-05T20:31:58.733Z,98784.84
2023-03-05T20:34:01.345Z,98799.06
2023-03-05T20:36:04.492Z,98783.56
2023-03-05T20:38:23.389Z,98799.94
2023-03-05T20:40:26.799Z,98777.66
2023-03-05T20:42:29.216Z,98771.75
2023-03-05T20:44:31.909Z,98769.72
2023-03-05T20:46:37.464Z,98775.03
2023-03-05T20:48:40.255Z,98801.97
2023-03-05T20:50:43.337Z,98755.38
2023-03-05T20:52:46.027Z,98750.00
2023-03-05T20:54:49.328Z,98805.75
2023-03-05T20:56:52.177Z,98720.16
2023-03-05T20:58:55.820Z,98734.25
2023-03-05T21:00:58.773Z,98779.03
2023-03-05T21:03:01.322Z,98766.91
2023-03-05T21:05:04.561Z,98751.53
2023-03-05T21:07:07.387Z,98738.78
2023-03-05T21:09:09.717Z,98811.50
2023-03-05T21:11:12.997Z,98781.22
2023-03-05T21:13:15.530Z,98772.03
2023-03-05T21:15:21.654Z,98787.94
2023-03-05T21:17:24.145Z,98793.31
2023-03-05T21:19:26.500Z,98778.84
2023-03-05T21:21:29.014Z,98795.88
2023-03-05T21:23:31.962Z,98810.88
2023-03-05T21:25:34.911Z,98789.13
2023-03-05T21:27:37.368Z,98760.81
2023-03-05T21:29:39.854Z,98800.22
2023-03-05T21:31:42.258Z,98756.63
2023-03-05T21:33:45.020Z,98790.34
2023-03-05T21:35:47.753Z,98724.47
2023-03-05T21:37:52.968Z,98810.25
2023-03-05T21:39:55.638Z,98776.41
2023-03-05T21:41:57.890Z,98780.25
2023-03-05T21:44:04.250Z,98781.28
2023-03-05T21:46:06.755Z,98734.13
2023-03-05T21:48:10.471Z,98787.38
2023-03-05T21:50:14.916Z,98786.84
2023-03-05T21:52:17.180Z,98771.19
2023-03-05T21:54:19.858Z,98727.06
2023-03-05T21:56:24.427Z,98694.94
2023-03-05T21:58:26.954Z,98742.63
2023-03-05T22:00:29.563Z,98759.59
2023-03-05T22:02:32.712Z,98730.06
2023-03-05T22:04:35.030Z,98758.53
2023-03-05T22:06:38.192Z,98770.91
2023-03-05T22:08:40.766Z,98786.19
2023-03-05T22:10:43.063Z,98728.06
2023-03-05T22:12:57.737Z,98748.19
2023-03-05T22:15:01.077Z,98756.72
2023-03-05T22:17:03.533Z,98741.00
2023-03-05T22:19:06.201Z,98733.78
2023-03-05T22:21:18.351Z,98695.13
2023-03-05T22:23:23.103Z,98796.41
2023-03-05T22:25:25.511Z,98721.00
2023-03-05T22:27:27.841Z,98738.16
2023-03-05T22:29:30.369Z,98776.59
2023-03-05T22:31:33.254Z,98758.66
2023-03-05T22:33:36.220Z,98763.91
2023-03-05T22:35:41.456Z,98769.81
2023-03-05T22:37:44.415Z,98720.50
2023-03-05T22:39:46.696Z,98750.81
2023-03-05T22:41:49.636Z,98749.91
2023-03-05T22:43:51.984Z,98706.22
2023-03-05T22:45:54.153Z,98715.16
2023-03-05T22:47:56.620Z,98764.63
2023-03-05T22:49:59.483Z,98754.81
2023-03-05T22:52:02.039Z,98739.72
2023-03-05T22:54:04.804Z,98753.56
2023-03-05T22:56:13.268Z,98765.19
2023-03-05T22:58:15.677Z,98740.06
2023-03-05T23:00:23.739Z,98718.06
2023-03-05T23:02:26.693Z,98716.59
2023-03-05T23:05:00.504Z,98786.09
2023-03-05T23:07:02.867Z,98754.44
2023-03-05T23:09:05.345Z,98726.88
2023-03-05T23:11:12.838Z,98712.69
2023-03-05T23:13:15.310Z,98676.75
2023-03-05T23:15:24.300Z,98738.22
2023-03-05T23:17:27.734Z,98756.88
2023-03-05T23:19:30.293Z,98745.47
2023-03-05T23:21:32.728Z,98712.66
2023-03-05T23:23:35.276Z,98776.28
2023-03-05T23:25:37.983Z,98738.47
2023-03-05T23:27:41.097Z,98758.22
2023-03-05T23:30:08.412Z,98726.94
2023-03-05T23:32:10.867Z,98775.44
2023-03-05T23:34:13.629Z,98652.44
2023-03-05T23:36:20.150Z,98735.31
2023-03-05T23:38:24.057Z,98680.53
2023-03-05T23:40:36.178Z,98733.69
2023-03-05T23:42:39.422Z,98716.34
2023-03-05T23:44:41.737Z,98744.75
2023-03-05T23:46:44.135Z,98755.66
2023-03-05T23:48:46.456Z,98669.56
2023-03-05T23:50:50.545Z,98738.38
2023-03-05T23:52:54.510Z,98770.81
2023-03-05T23:54:56.880Z,98735.31
2023-03-05T23:56:59.725Z,98735.50
2023-03-05T23:59:02.541Z,98735.31
